sensor_id;sensor_type;location;lat;lon;timestamp;pressure;altitude;pressure_sealevel;temperature;humidity
12879;BME280;20617;49.476;10.986;2022-11-24T00:01:31;97470.94;;;7.40;100.00
12879;BME280;20617;49.476;10.986;2022-11-24T00:03:39;97481.28;;;7.40;100.00
12879;BME280;20617;49.476;10.986;2022-11-24T00:05:43;97483.81;;;7.42;100.00
12879;BME280;20617;49.476;10.986;2022-11-24T00:07:49;97487.03;;;7.47;100.00
12879;BME280;20617;49.476;10.986;2022-11-24T00:09:54;97492.19;;;7.48;100.00
12879;BME280;20617;49.476;10.986;2022-11-24T00:11:59;97491.25;;;7.49;100.00
12879;BME280;20617;49.476;10.986;2022-11-24T00:14:05;97492.47;;;7.41;100.00
12879;BME280;20617;49.476;10.986;2022-11-24T00:16:11;97499.53;;;7.37;100.00
12879;BME280;20617;49.476;10.986;2022-11-24T00:18:16;97503.09;;;7.35;100.00
12879;BME280;20617;49.476;10.986;2022-11-24T00:20:24;97501.47;;;7.32;100.00
12879;BME280;20617;49.476;10.986;2022-11-24T00:22:29;97523.47;;;7.22;100.00
12879;BME280;20617;49.476;10.986;2022-11-24T00:24:34;97521.44;;;7.08;100.00
12879;BME280;20617;49.476;10.986;2022-11-24T00:26:39;97525.66;;;7.11;100.00
12879;BME280;20617;49.476;10.986;2022-11-24T00:28:45;97528.47;;;7.05;100.00
12879;BME280;20617;49.476;10.986;2022-11-24T00:30:50;97535.88;;;7.14;100.00
12879;BME280;20617;49.476;10.986;2022-11-24T00:32:55;97540.22;;;7.13;100.00
12879;BME280;20617;49.476;10.986;2022-11-24T00:35:00;97537.50;;;7.16;100.00
12879;BME280;20617;49.476;10.986;2022-11-24T00:37:07;97542.56;;;7.19;100.00
12879;BME280;20617;49.476;10.986;2022-11-24T00:39:15;97554.53;;;7.22;100.00
12879;BME280;20617;49.476;10.986;2022-11-24T00:41:21;97553.78;;;7.18;100.00
12879;BME280;20617;49.476;10.986;2022-11-24T00:43:26;97558.88;;;7.21;100.00
12879;BME280;20617;49.476;10.986;2022-11-24T00:45:31;97561.56;;;7.18;100.00
12879;BME280;20617;49.476;10.986;2022-11-24T00:47:36;97566.69;;;7.20;100.00
12879;BME280;20617;49.476;10.986;2022-11-24T00:49:41;97566.69;;;7.20;100.00
12879;BME280;20617;49.476;10.986;2022-11-24T00:51:48;97570.94;;;7.21;100.00
12879;BME280;20617;49.476;10.986;2022-11-24T00:53:56;97571.75;;;7.23;100.00
12879;BME280;20617;49.476;10.986;2022-11-24T00:56:00;97577.09;;;7.18;100.00
12879;BME280;20617;49.476;10.986;2022-11-24T00:58:05;97582.34;;;7.17;100.00
12879;BME280;20617;49.476;10.986;2022-11-24T01:00:11;97586.69;;;7.16;100.00
12879;BME280;20617;49.476;10.986;2022-11-24T01:02:16;97590.09;;;7.17;100.00
12879;BME280;20617;49.476;10.986;2022-11-24T01:04:21;97584.13;;;7.15;100.00
12879;BME280;20617;49.476;10.986;2022-11-24T01:06:27;97591.66;;;7.21;100.00
12879;BME280;20617;49.476;10.986;2022-11-24T01:08:34;97588.34;;;7.17;100.00
12879;BME280;20617;49.476;10.986;2022-11-24T01:10:42;97593.28;;;7.23;100.00
12879;BME280;20617;49.476;10.986;2022-11-24T01:12:47;97596.56;;;7.29;100.00
12879;BME280;20617;49.476;10.986;2022-11-24T01:14:52;97595.59;;;7.31;100.00
12879;BME280;20617;49.476;10.986;2022-11-24T01:16:57;97591.97;;;7.35;100.00
12879;BME280;20617;49.476;10.986;2022-11-24T01:19:01;97598.97;;;7.33;100.00
12879;BME280;20617;49.476;10.986;2022-11-24T01:21:07;97598.97;;;7.33;100.00
12879;BME280;20617;49.476;10.986;2022-11-24T01:23:13;97599.72;;;7.35;100.00
12879;BME280;20617;49.476;10.986;2022-11-24T01:25:18;97597.88;;;7.39;100.00
12879;BME280;20617;49.476;10.986;2022-11-24T01:27:26;97601.91;;;7.46;100.00
12879;BME280;20617;49.476;10.986;2022-11-24T01:29:30;97603.81;;;7.41;100.00
12879;BME280;20617;49.476;10.986;2022-11-24T01:31:35;97608.00;;;7.45;100.00
12879;BME280;20617;49.476;10.986;2022-11-24T01:33:40;97609.59;;;7.47;100.00
12879;BME280;20617;49.476;10.986;2022-11-24T01:35:45;97619.91;;;7.49;100.00
12879;BME280;20617;49.476;10.986;2022-11-24T01:37:50;97617.19;;;7.52;100.00
12879;BME280;20617;49.476;10.986;2022-11-24T01:39:57;97623.34;;;7.49;100.00
12879;BME280;20617;49.476;10.986;2022-11-24T01:42:02;97623.03;;;7.57;100.00
12879;BME280;20617;49.476;10.986;2022-11-24T01:44:24;97618.56;;;7.61;100.00
12879;BME280;20617;49.476;10.986;2022-11-24T01:46:32;97626.09;;;7.67;100.00
12879;BME280;20617;49.476;10.986;2022-11-24T01:48:43;97628.69;;;7.67;100.00
12879;BME280;20617;49.476;10.986;2022-11-24T01:50:52;97628.56;;;7.70;100.00
12879;BME280;20617;49.476;10.986;2022-11-24T01:52:58;97623.44;;;7.68;100.00
12879;BME280;20617;49.476;10.986;2022-11-24T01:55:07;97631.28;;;7.67;100.00
12879;BME280;20617;49.476;10.986;2022-11-24T01:57:16;97635.44;;;7.71;100.00
12879;BME280;20617;49.476;10.986;2022-11-24T01:59:26;97637.94;;;7.72;100.00
12879;BME280;20617;49.476;10.986;2022-11-24T02:01:31;97642.28;;;7.72;100.00
12879;BME280;20617;49.476;10.986;2022-11-24T02:03:39;97641.38;;;7.73;100.00
12879;BME280;20617;49.476;10.986;2022-11-24T02:05:50;97647.09;;;7.81;100.00
12879;BME280;20617;49.476;10.986;2022-11-24T02:08:01;97634.69;;;7.89;100.00
12879;BME280;20617;49.476;10.986;2022-11-24T02:10:11;97641.22;;;7.98;100.00
12879;BME280;20617;49.476;10.986;2022-11-24T02:12:16;97641.94;;;8.02;100.00
12879;BME280;20617;49.476;10.986;2022-11-24T02:14:22;97641.75;;;8.06;100.00
12879;BME280;20617;49.476;10.986;2022-11-24T02:16:31;97645.75;;;8.13;100.00
12879;BME280;20617;49.476;10.986;2022-11-24T02:18:38;97643.88;;;8.17;100.00
12879;BME280;20617;49.476;10.986;2022-11-24T02:20:43;97643.03;;;8.16;100.00
12879;BME280;20617;49.476;10.986;2022-11-24T02:22:52;97640.41;;;8.18;100.00
12879;BME280;20617;49.476;10.986;2022-11-24T02:25:03;97644.88;;;8.14;100.00
12879;BME280;20617;49.476;10.986;2022-11-24T02:27:12;97645.75;;;8.13;100.00
12879;BME280;20617;49.476;10.986;2022-11-24T02:29:17;97648.56;;;8.09;100.00
12879;BME280;20617;49.476;10.986;2022-11-24T02:31:23;97648.69;;;8.06;100.00
12879;BME280;20617;49.476;10.986;2022-11-24T02:33:28;97649.41;;;8.09;100.00
12879;BME280;20617;49.476;10.986;2022-11-24T02:35:33;97650.75;;;7.98;100.00
12879;BME280;20617;49.476;10.986;2022-11-24T02:37:38;97650.69;;;7.99;100.00
12879;BME280;20617;49.476;10.986;2022-11-24T02:39:43;97654.44;;;7.92;100.00
12879;BME280;20617;49.476;10.986;2022-11-24T02:41:51;97646.78;;;7.89;100.00
12879;BME280;20617;49.476;10.986;2022-11-24T02:44:00;97652.03;;;7.87;100.00
12879;BME280;20617;49.476;10.986;2022-11-24T02:46:05;97649.38;;;7.89;100.00
12879;BME280;20617;49.476;10.986;2022-11-24T02:48:13;97655.59;;;7.85;100.00
12879;BME280;20617;49.476;10.986;2022-11-24T02:50:18;97653.97;;;7.82;100.00
12879;BME280;20617;49.476;10.986;2022-11-24T02:52:23;97656.53;;;7.82;100.00
12879;BME280;20617;49.476;10.986;2022-11-24T02:54:28;97655.66;;;7.83;100.00
12879;BME280;20617;49.476;10.986;2022-11-24T02:56:33;97655.06;;;7.77;100.00
12879;BME280;20617;49.476;10.986;2022-11-24T02:58:38;97661.94;;;7.78;100.00
12879;BME280;20617;49.476;10.986;2022-11-24T03:00:46;97665.25;;;7.81;100.00
12879;BME280;20617;49.476;10.986;2022-11-24T03:02:51;97667.78;;;7.83;100.00
12879;BME280;20617;49.476;10.986;2022-11-24T03:04:55;97670.16;;;7.87;100.00
12879;BME280;20617;49.476;10.986;2022-11-24T03:07:00;97670.28;;;7.84;100.00
12879;BME280;20617;49.476;10.986;2022-11-24T03:09:05;97675.34;;;7.87;100.00
12879;BME280;20617;49.476;10.986;2022-11-24T03:11:10;97680.53;;;7.87;100.00
12879;BME280;20617;49.476;10.986;2022-11-24T03:13:15;97680.41;;;7.90;100.00
12879;BME280;20617;49.476;10.986;2022-11-24T03:15:20;97689.09;;;7.89;100.00
12879;BME280;20617;49.476;10.986;2022-11-24T03:17:27;97692.81;;;7.82;100.00
12879;BME280;20617;49.476;10.986;2022-11-24T03:19:32;97684.16;;;7.83;100.00
12879;BME280;20617;49.476;10.986;2022-11-24T03:21:37;97694.28;;;7.89;100.00
12879;BME280;20617;49.476;10.986;2022-11-24T03:23:42;97696.91;;;7.88;100.00
12879;BME280;20617;49.476;10.986;2022-11-24T03:25:47;97697.41;;;7.98;100.00
12879;BME280;20617;49.476;10.986;2022-11-24T03:27:51;97698.91;;;8.03;100.00
12879;BME280;20617;49.476;10.986;2022-11-24T03:29:56;97702.34;;;8.04;100.00
12879;BME280;20617;49.476;10.986;2022-11-24T03:32:01;97702.47;;;8.01;100.00
12879;BME280;20617;49.476;10.986;2022-11-24T03:34:09;97703.47;;;7.97;100.00
12879;BME280;20617;49.476;10.986;2022-11-24T03:36:14;97703.34;;;8.00;100.00
12879;BME280;20617;49.476;10.986;2022-11-24T03:38:19;97700.59;;;8.04;100.00
12879;BME280;20617;49.476;10.986;2022-11-24T03:40:23;97705.38;;;8.13;100.00
12879;BME280;20617;49.476;10.986;2022-11-24T03:42:28;97710.53;;;8.15;100.00
12879;BME280;20617;49.476;10.986;2022-11-24T03:44:33;97705.13;;;8.20;100.00
12879;BME280;20617;49.476;10.986;2022-11-24T03:46:38;97709.34;;;8.22;100.00
12879;BME280;20617;49.476;10.986;2022-11-24T03:48:46;97708.56;;;8.20;100.00
12879;BME280;20617;49.476;10.986;2022-11-24T03:50:57;97713.53;;;8.26;100.00
12879;BME280;20617;49.476;10.986;2022-11-24T03:53:03;97705.94;;;8.22;100.00
12879;BME280;20617;49.476;10.986;2022-11-24T03:55:08;97706.84;;;8.21;100.00
12879;BME280;20617;49.476;10.986;2022-11-24T03:57:13;97709.47;;;8.19;100.00
12879;BME280;20617;49.476;10.986;2022-11-24T03:59:18;97706.84;;;8.21;100.00
12879;BME280;20617;49.476;10.986;2022-11-24T04:01:23;97707.72;;;8.20;100.00
12879;BME280;20617;49.476;10.986;2022-11-24T04:03:28;97715.63;;;8.16;100.00
12879;BME280;20617;49.476;10.986;2022-11-24T04:05:33;97719.19;;;8.14;100.00
12879;BME280;20617;49.476;10.986;2022-11-24T04:07:41;97723.38;;;8.18;100.00
12879;BME280;20617;49.476;10.986;2022-11-24T04:09:46;97732.03;;;8.17;100.00
12879;BME280;20617;49.476;10.986;2022-11-24T04:11:51;97732.09;;;8.15;100.00
12879;BME280;20617;49.476;10.986;2022-11-24T04:14:11;97738.31;;;8.11;100.00
12879;BME280;20617;49.476;10.986;2022-11-24T04:16:16;97736.38;;;8.16;100.00
12879;BME280;20617;49.476;10.986;2022-11-24T04:18:21;97743.19;;;8.19;100.00
12879;BME280;20617;49.476;10.986;2022-11-24T04:20:26;97747.22;;;8.26;100.00
12879;BME280;20617;49.476;10.986;2022-11-24T04:22:31;97746.38;;;8.26;100.00
12879;BME280;20617;49.476;10.986;2022-11-24T04:24:39;97745.53;;;8.25;100.00
12879;BME280;20617;49.476;10.986;2022-11-24T04:26:43;97750.66;;;8.27;100.00
12879;BME280;20617;49.476;10.986;2022-11-24T04:28:48;97749.63;;;8.31;100.00
12879;BME280;20617;49.476;10.986;2022-11-24T04:30:53;97753.72;;;8.36;100.00
12879;BME280;20617;49.476;10.986;2022-11-24T04:32:58;97751.69;;;8.45;100.00
12879;BME280;20617;49.476;10.986;2022-11-24T04:35:04;97753.06;;;8.53;100.00
12879;BME280;20617;49.476;10.986;2022-11-24T04:37:08;97759.72;;;8.59;100.00
12879;BME280;20617;49.476;10.986;2022-11-24T04:39:13;97761.22;;;8.65;100.00
12879;BME280;20617;49.476;10.986;2022-11-24T04:41:29;97756.78;;;8.67;100.00
12879;BME280;20617;49.476;10.986;2022-11-24T04:43:34;97761.09;;;8.68;100.00
12879;BME280;20617;49.476;10.986;2022-11-24T04:45:41;97763.47;;;8.72;100.00
12879;BME280;20617;49.476;10.986;2022-11-24T04:47:46;97766.34;;;8.66;100.00
12879;BME280;20617;49.476;10.986;2022-11-24T04:49:51;97772.50;;;8.64;100.00
12879;BME280;20617;49.476;10.986;2022-11-24T04:51:56;97774.34;;;8.61;100.00
12879;BME280;20617;49.476;10.986;2022-11-24T04:54:01;97779.66;;;8.58;100.00
12879;BME280;20617;49.476;10.986;2022-11-24T04:56:07;97779.03;;;8.52;100.00
12879;BME280;20617;49.476;10.986;2022-11-24T04:58:14;97782.81;;;8.45;100.00
12879;BME280;20617;49.476;10.986;2022-11-24T05:00:19;97783.91;;;8.39;100.00
12879;BME280;20617;49.476;10.986;2022-11-24T05:02:24;97793.78;;;8.29;100.00
12879;BME280;20617;49.476;10.986;2022-11-24T05:04:29;97794.88;;;8.24;100.00
12879;BME280;20617;49.476;10.986;2022-11-24T05:06:34;97799.84;;;8.28;100.00
12879;BME280;20617;49.476;10.986;2022-11-24T05:08:39;97798.19;;;8.27;100.00
12879;BME280;20617;49.476;10.986;2022-11-24T05:10:44;97798.06;;;8.30;100.00
12879;BME280;20617;49.476;10.986;2022-11-24T05:12:53;97795.59;;;8.27;100.00
12879;BME280;20617;49.476;10.986;2022-11-24T05:15:01;97797.38;;;8.25;100.00
12879;BME280;20617;49.476;10.986;2022-11-24T05:17:07;97799.44;;;8.17;100.00
12879;BME280;20617;49.476;10.986;2022-11-24T05:19:12;97803.84;;;8.15;100.00
12879;BME280;20617;49.476;10.986;2022-11-24T05:21:17;97807.41;;;8.12;100.00
12879;BME280;20617;49.476;10.986;2022-11-24T05:23:22;97810.25;;;8.06;100.00
12879;BME280;20617;49.476;10.986;2022-11-24T05:25:26;97812.88;;;8.05;100.00
12879;BME280;20617;49.476;10.986;2022-11-24T05:27:31;97809.50;;;8.03;100.00
12879;BME280;20617;49.476;10.986;2022-11-24T05:29:36;97812.75;;;8.08;100.00
12879;BME280;20617;49.476;10.986;2022-11-24T05:31:43;97815.34;;;8.08;100.00
12879;BME280;20617;49.476;10.986;2022-11-24T05:33:48;97812.59;;;8.12;100.00
12879;BME280;20617;49.476;10.986;2022-11-24T05:35:53;97817.81;;;8.11;100.00
12879;BME280;20617;49.476;10.986;2022-11-24T05:37:58;97814.53;;;8.07;100.00
12879;BME280;20617;49.476;10.986;2022-11-24T05:40:05;97806.69;;;8.09;100.00
12879;BME280;20617;49.476;10.986;2022-11-24T05:42:09;97822.25;;;8.09;100.00
12879;BME280;20617;49.476;10.986;2022-11-24T05:44:27;97818.06;;;8.05;100.00
12879;BME280;20617;49.476;10.986;2022-11-24T05:46:32;97824.88;;;8.07;100.00
12879;BME280;20617;49.476;10.986;2022-11-24T05:48:39;97818.78;;;8.08;100.00
12879;BME280;20617;49.476;10.986;2022-11-24T05:50:44;97820.63;;;8.06;100.00
12879;BME280;20617;49.476;10.986;2022-11-24T05:52:49;97823.25;;;8.05;100.00
12879;BME280;20617;49.476;10.986;2022-11-24T05:54:54;97830.25;;;8.03;100.00
12879;BME280;20617;49.476;10.986;2022-11-24T05:56:59;97832.09;;;7.99;100.00
12879;BME280;20617;49.476;10.986;2022-11-24T05:59:04;97825.38;;;7.95;100.00
12879;BME280;20617;49.476;10.986;2022-11-24T06:01:11;97829.63;;;7.96;100.00
12879;BME280;20617;49.476;10.986;2022-11-24T06:03:16;97828.81;;;7.96;100.00
12879;BME280;20617;49.476;10.986;2022-11-24T06:05:23;97829.63;;;7.96;100.00
12879;BME280;20617;49.476;10.986;2022-11-24T06:07:28;97836.69;;;7.92;100.00
12879;BME280;20617;49.476;10.986;2022-11-24T06:09:34;97838.50;;;7.90;100.00
12879;BME280;20617;49.476;10.986;2022-11-24T06:11:39;97840.31;;;7.88;100.00
12879;BME280;20617;49.476;10.986;2022-11-24T06:13:45;97848.13;;;7.87;100.00
12879;BME280;20617;49.476;10.986;2022-11-24T06:15:51;97839.56;;;7.85;100.00
12879;BME280;20617;49.476;10.986;2022-11-24T06:17:55;97844.81;;;7.83;100.00
12879;BME280;20617;49.476;10.986;2022-11-24T06:20:00;97852.63;;;7.82;100.00
12879;BME280;20617;49.476;10.986;2022-11-24T06:22:08;97849.22;;;7.81;100.00
12879;BME280;20617;49.476;10.986;2022-11-24T06:24:13;97847.56;;;7.79;100.00
12879;BME280;20617;49.476;10.986;2022-11-24T06:26:18;97849.41;;;7.77;100.00
12879;BME280;20617;49.476;10.986;2022-11-24T06:28:23;97856.19;;;7.79;100.00
12879;BME280;20617;49.476;10.986;2022-11-24T06:30:27;97856.94;;;7.83;100.00
12879;BME280;20617;49.476;10.986;2022-11-24T06:32:32;97855.06;;;7.86;100.00
12879;BME280;20617;49.476;10.986;2022-11-24T06:34:37;97858.38;;;7.90;100.00
12879;BME280;20617;49.476;10.986;2022-11-24T06:36:42;97854.75;;;7.94;100.00
12879;BME280;20617;49.476;10.986;2022-11-24T06:38:50;97859.84;;;7.97;100.00
12879;BME280;20617;49.476;10.986;2022-11-24T06:40:59;97858.75;;;8.03;100.00
12879;BME280;20617;49.476;10.986;2022-11-24T06:43:04;97863.72;;;8.09;100.00
12879;BME280;20617;49.476;10.986;2022-11-24T06:45:09;97861.91;;;8.11;100.00
12879;BME280;20617;49.476;10.986;2022-11-24T06:47:14;97853.03;;;8.16;100.00
12879;BME280;20617;49.476;10.986;2022-11-24T06:49:19;97856.31;;;8.22;100.00
12879;BME280;20617;49.476;10.986;2022-11-24T06:51:24;97852.75;;;8.24;100.00
12879;BME280;20617;49.476;10.986;2022-11-24T06:53:30;97857.69;;;8.30;100.00
12879;BME280;20617;49.476;10.986;2022-11-24T06:55:41;97857.53;;;8.35;100.00
12879;BME280;20617;49.476;10.986;2022-11-24T06:57:46;97851.25;;;8.41;100.00
12879;BME280;20617;49.476;10.986;2022-11-24T06:59:51;97858.03;;;8.45;100.00
12879;BME280;20617;49.476;10.986;2022-11-24T07:01:56;97851.81;;;8.49;100.00
12879;BME280;20617;49.476;10.986;2022-11-24T07:04:01;97848.25;;;8.51;100.00
12879;BME280;20617;49.476;10.986;2022-11-24T07:06:06;97852.41;;;8.55;100.00
12879;BME280;20617;49.476;10.986;2022-11-24T07:08:10;97866.16;;;8.57;100.00
12879;BME280;20617;49.476;10.986;2022-11-24T07:10:18;97864.31;;;8.61;100.00
12879;BME280;20617;49.476;10.986;2022-11-24T07:12:26;97867.63;;;8.65;100.00
12879;BME280;20617;49.476;10.986;2022-11-24T07:14:31;97867.50;;;8.68;100.00
12879;BME280;20617;49.476;10.986;2022-11-24T07:16:37;97860.66;;;8.65;100.00
12879;BME280;20617;49.476;10.986;2022-11-24T07:18:42;97868.56;;;8.62;100.00
12879;BME280;20617;49.476;10.986;2022-11-24T07:20:47;97873.81;;;8.60;100.00
12879;BME280;20617;49.476;10.986;2022-11-24T07:22:54;97877.44;;;8.56;100.00
12879;BME280;20617;49.476;10.986;2022-11-24T07:25:00;97873.47;;;8.48;100.00
12879;BME280;20617;49.476;10.986;2022-11-24T07:27:07;97877.88;;;8.46;100.00
12879;BME280;20617;49.476;10.986;2022-11-24T07:29:16;97882.28;;;8.44;100.00
12879;BME280;20617;49.476;10.986;2022-11-24T07:31:22;97884.97;;;8.41;100.00
12879;BME280;20617;49.476;10.986;2022-11-24T07:33:28;97890.25;;;8.37;100.00
12879;BME280;20617;49.476;10.986;2022-11-24T07:35:33;97883.38;;;8.36;100.00
12879;BME280;20617;49.476;10.986;2022-11-24T07:37:37;97884.34;;;8.34;100.00
12879;BME280;20617;49.476;10.986;2022-11-24T07:39:42;97895.69;;;8.31;100.00
12879;BME280;20617;49.476;10.986;2022-11-24T07:41:47;97889.91;;;8.25;100.00
12879;BME280;20617;49.476;10.986;2022-11-24T07:43:52;97895.03;;;8.26;100.00
12879;BME280;20617;49.476;10.986;2022-11-24T07:46:02;97893.16;;;8.30;100.00
12879;BME280;20617;49.476;10.986;2022-11-24T07:48:07;97899.19;;;8.30;100.00
12879;BME280;20617;49.476;10.986;2022-11-24T07:50:16;97899.88;;;8.35;100.00
12879;BME280;20617;49.476;10.986;2022-11-24T07:52:21;97901.50;;;8.38;100.00
12879;BME280;20617;49.476;10.986;2022-11-24T07:54:27;97900.53;;;8.41;100.00
12879;BME280;20617;49.476;10.986;2022-11-24T07:56:33;97900.25;;;8.48;100.00
12879;BME280;20617;49.476;10.986;2022-11-24T07:58:38;97913.81;;;8.55;100.00
12879;BME280;20617;49.476;10.986;2022-11-24T08:00:49;97910.88;;;8.64;100.00
12879;BME280;20617;49.476;10.986;2022-11-24T08:02:56;97902.97;;;8.67;100.00
12879;BME280;20617;49.476;10.986;2022-11-24T08:05:01;97901.09;;;8.71;100.00
12879;BME280;20617;49.476;10.986;2022-11-24T08:07:06;97900.88;;;8.75;100.00
12879;BME280;20617;49.476;10.986;2022-11-24T08:09:11;97896.44;;;8.79;100.00
12879;BME280;20617;49.476;10.986;2022-11-24T08:11:16;97894.47;;;8.84;100.00
12879;BME280;20617;49.476;10.986;2022-11-24T08:13:21;97899.78;;;8.81;100.00
12879;BME280;20617;49.476;10.986;2022-11-24T08:15:26;97901.25;;;8.88;100.00
12879;BME280;20617;49.476;10.986;2022-11-24T08:17:31;97903.72;;;8.91;100.00
12879;BME280;20617;49.476;10.986;2022-11-24T08:19:39;97902.22;;;8.86;100.00
12879;BME280;20617;49.476;10.986;2022-11-24T08:21:43;97892.75;;;8.84;100.00
12879;BME280;20617;49.476;10.986;2022-11-24T08:23:48;97902.03;;;8.90;100.00
12879;BME280;20617;49.476;10.986;2022-11-24T08:25:53;97899.19;;;8.96;100.00
12879;BME280;20617;49.476;10.986;2022-11-24T08:28:02;97894.72;;;9.00;100.00
12879;BME280;20617;49.476;10.986;2022-11-24T08:30:09;97893.91;;;8.98;100.00
12879;BME280;20617;49.476;10.986;2022-11-24T08:32:16;97897.47;;;8.95;100.00
12879;BME280;20617;49.476;10.986;2022-11-24T08:34:24;97893.78;;;9.01;100.00
12879;BME280;20617;49.476;10.986;2022-11-24T08:36:32;97896.13;;;9.07;100.00
12879;BME280;20617;49.476;10.986;2022-11-24T08:38:37;97895.94;;;9.12;100.00
12879;BME280;20617;49.476;10.986;2022-11-24T08:40:42;97898.59;;;9.10;100.00
12879;BME280;20617;49.476;10.986;2022-11-24T08:42:47;97896.88;;;9.11;100.00
12879;BME280;20617;49.476;10.986;2022-11-24T08:44:52;97894.31;;;9.09;100.00
12879;BME280;20617;49.476;10.986;2022-11-24T08:46:59;97900.09;;;9.16;100.00
12879;BME280;20617;49.476;10.986;2022-11-24T08:49:07;97904.31;;;9.18;100.00
12879;BME280;20617;49.476;10.986;2022-11-24T08:51:15;97900.84;;;9.19;100.00
12879;BME280;20617;49.476;10.986;2022-11-24T08:53:23;97900.88;;;9.18;100.00
12879;BME280;20617;49.476;10.986;2022-11-24T08:55:28;97903.94;;;9.27;100.00
12879;BME280;20617;49.476;10.986;2022-11-24T08:57:33;97899.38;;;9.33;100.00
12879;BME280;20617;49.476;10.986;2022-11-24T08:59:38;97900.09;;;9.36;100.00
12879;BME280;20617;49.476;10.986;2022-11-24T09:01:42;97905.09;;;9.41;100.00
12879;BME280;20617;49.476;10.986;2022-11-24T09:03:48;97901.72;;;9.39;100.00
12879;BME280;20617;49.476;10.986;2022-11-24T09:05:56;97899.25;;;9.36;100.00
12879;BME280;20617;49.476;10.986;2022-11-24T09:08:01;97911.44;;;9.34;100.00
12879;BME280;20617;49.476;10.986;2022-11-24T09:10:09;97911.53;;;9.32;100.00
12879;BME280;20617;49.476;10.986;2022-11-24T09:12:14;97909.19;;;9.26;100.00
12879;BME280;20617;49.476;10.986;2022-11-24T09:14:22;97917.66;;;9.31;100.00
12879;BME280;20617;49.476;10.986;2022-11-24T09:16:28;97915.88;;;9.32;100.00
12879;BME280;20617;49.476;10.986;2022-11-24T09:18:33;97910.56;;;9.35;100.00
12879;BME280;20617;49.476;10.986;2022-11-24T09:20:38;97920.69;;;9.41;100.00
12879;BME280;20617;49.476;10.986;2022-11-24T09:22:43;97920.38;;;9.48;100.00
12879;BME280;20617;49.476;10.986;2022-11-24T09:24:48;97920.09;;;9.55;100.00
12879;BME280;20617;49.476;10.986;2022-11-24T09:26:56;97921.72;;;9.57;100.00
12879;BME280;20617;49.476;10.986;2022-11-24T09:29:02;97927.75;;;9.58;100.00
12879;BME280;20617;49.476;10.986;2022-11-24T09:31:10;97932.13;;;9.57;100.00
12879;BME280;20617;49.476;10.986;2022-11-24T09:33:15;97932.56;;;9.46;100.00
12879;BME280;20617;49.476;10.986;2022-11-24T09:35:22;97934.50;;;9.41;100.00
12879;BME280;20617;49.476;10.986;2022-11-24T09:37:27;97940.41;;;9.45;100.00
12879;BME280;20617;49.476;10.986;2022-11-24T09:39:33;97941.06;;;9.50;100.00
12879;BME280;20617;49.476;10.986;2022-11-24T09:41:45;97945.63;;;9.45;100.00
12879;BME280;20617;49.476;10.986;2022-11-24T09:44:01;97947.19;;;9.28;100.00
12879;BME280;20617;49.476;10.986;2022-11-24T09:46:14;97947.31;;;9.25;100.00
12879;BME280;20617;49.476;10.986;2022-11-24T09:48:27;97942.53;;;9.37;100.00
12879;BME280;20617;49.476;10.986;2022-11-24T09:50:34;97953.75;;;9.37;100.00
12879;BME280;20617;49.476;10.986;2022-11-24T09:52:45;97942.19;;;9.24;100.00
12879;BME280;20617;49.476;10.986;2022-11-24T09:54:55;97951.16;;;9.17;100.00
12879;BME280;20617;49.476;10.986;2022-11-24T09:57:04;97958.72;;;9.21;100.00
12879;BME280;20617;49.476;10.986;2022-11-24T09:59:14;97956.78;;;9.26;100.00
12879;BME280;20617;49.476;10.986;2022-11-24T10:01:23;97960.09;;;9.30;100.00
12879;BME280;20617;49.476;10.986;2022-11-24T10:03:32;97962.16;;;9.22;100.00
12879;BME280;20617;49.476;10.986;2022-11-24T10:05:41;97970.69;;;9.25;100.00
12879;BME280;20617;49.476;10.986;2022-11-24T10:07:57;97967.72;;;9.35;100.00
12879;BME280;20617;49.476;10.986;2022-11-24T10:10:05;97967.31;;;9.44;100.00
12879;BME280;20617;49.476;10.986;2022-11-24T10:12:21;97967.84;;;9.52;100.00
12879;BME280;20617;49.476;10.986;2022-11-24T10:15:01;97975.91;;;9.46;100.00
12879;BME280;20617;49.476;10.986;2022-11-24T10:17:21;97975.94;;;9.44;100.00
12879;BME280;20617;49.476;10.986;2022-11-24T10:19:35;97972.69;;;9.39;100.00
12879;BME280;20617;49.476;10.986;2022-11-24T10:21:53;97973.50;;;9.41;100.00
12879;BME280;20617;49.476;10.986;2022-11-24T10:24:15;97971.41;;;9.29;100.00
12879;BME280;20617;49.476;10.986;2022-11-24T10:26:31;97983.44;;;9.32;100.00
12879;BME280;20617;49.476;10.986;2022-11-24T10:28:40;97974.84;;;9.29;100.00
12879;BME280;20617;49.476;10.986;2022-11-24T10:31:08;97982.44;;;9.14;100.00
12879;BME280;20617;49.476;10.986;2022-11-24T10:33:16;97986.66;;;9.16;100.00
12879;BME280;20617;49.476;10.986;2022-11-24T10:35:38;97978.97;;;9.13;100.00
12879;BME280;20617;49.476;10.986;2022-11-24T10:37:56;97986.88;;;9.10;100.00
12879;BME280;20617;49.476;10.986;2022-11-24T10:40:09;97992.44;;;9.01;100.00
12879;BME280;20617;49.476;10.986;2022-11-24T10:42:36;97991.03;;;8.94;100.00
12879;BME280;20617;49.476;10.986;2022-11-24T10:44:41;97987.38;;;8.98;100.00
12879;BME280;20617;49.476;10.986;2022-11-24T10:46:49;97998.69;;;8.97;100.00
12879;BME280;20617;49.476;10.986;2022-11-24T10:48:57;97989.25;;;8.94;100.00
12879;BME280;20617;49.476;10.986;2022-11-24T10:51:19;97998.69;;;8.97;100.00
12879;BME280;20617;49.476;10.986;2022-11-24T10:53:29;97993.63;;;8.94;100.00
12879;BME280;20617;49.476;10.986;2022-11-24T10:56:02;97995.38;;;8.93;100.00
12879;BME280;20617;49.476;10.986;2022-11-24T10:58:15;97999.56;;;8.96;100.00
12879;BME280;20617;49.476;10.986;2022-11-24T11:00:32;97998.59;;;8.98;100.00
12879;BME280;20617;49.476;10.986;2022-11-24T11:02:40;97999.41;;;9.00;100.00
12879;BME280;20617;49.476;10.986;2022-11-24T11:04:45;97991.91;;;8.93;100.00